Stamford, Texas
Current Conditions -  °F | °C
As of 2:58 PM on Friday 24 Oct 2014 (Local Time) from KDYS Reporting Station
Clear Clear  
Wind Chill: 86°   Ceiling: Unl
Heat Index: 86°   Visibility: 10mi
Dew Point: 58°   Wind: 10mph
Humidity: 38%   Direction: 190°S
Pressure: 30.08"   Gusts: NA
Location:  32.95°N, 99.8°W
Report Text: KDYS 241958Z AUTO 19009KT 150V210 10SM CLR 30/14 A3008 RMK AO2 SLP144 T02990142 $
Loading
Personal Weather Stations






























Interactive Weather Map
Tropical Storm Tracking
New forecast layout! Learn more

10-Day Weather Forecast

Advertisements
Track Severe Weather on mobile